createdAt,value
2023-09-14T00:02:19.996Z,16.51
2023-09-14T00:04:48.547Z,16.51
2023-09-14T00:07:15.768Z,16.47
2023-09-14T00:09:42.868Z,16.52
2023-09-14T00:12:10.039Z,16.52
2023-09-14T00:14:38.132Z,16.48
2023-09-14T00:17:05.228Z,16.49
2023-09-14T00:19:32.302Z,16.49
2023-09-14T00:21:59.713Z,16.48
2023-09-14T00:24:26.915Z,16.53
2023-09-14T00:26:54.692Z,16.55
2023-09-14T00:29:22.768Z,16.52
2023-09-14T00:31:50.007Z,16.54
2023-09-14T00:34:19.206Z,16.59
2023-09-14T00:36:46.421Z,16.55
2023-09-14T00:39:13.758Z,16.51
2023-09-14T00:41:42.612Z,16.49
2023-09-14T00:44:10.046Z,16.50
2023-09-14T00:46:37.350Z,16.48
2023-09-14T00:49:05.886Z,16.53
2023-09-14T00:51:34.068Z,16.53
2023-09-14T00:54:01.618Z,16.56
2023-09-14T00:56:29.691Z,16.55
2023-09-14T00:59:00.071Z,16.58
2023-09-14T01:01:27.511Z,16.58
2023-09-14T01:03:54.905Z,16.53
2023-09-14T01:06:22.982Z,16.58
2023-09-14T01:08:50.885Z,16.55
2023-09-14T01:11:18.100Z,16.53
2023-09-14T01:14:10.446Z,16.51
2023-09-14T01:16:51.142Z,16.51
2023-09-14T01:19:47.562Z,16.50
2023-09-14T01:22:57.642Z,16.53
2023-09-14T01:25:47.161Z,16.50
2023-09-14T01:28:16.794Z,16.49
2023-09-14T01:30:43.921Z,16.45
2023-09-14T01:33:15.764Z,16.45
2023-09-14T01:35:51.475Z,16.48
2023-09-14T01:38:19.498Z,16.48
2023-09-14T01:40:49.734Z,16.49
2023-09-14T01:43:18.527Z,16.51
2023-09-14T01:45:47.252Z,16.51
2023-09-14T01:48:20.141Z,16.45
2023-09-14T01:50:47.991Z,16.46
2023-09-14T01:53:15.336Z,16.46
2023-09-14T01:55:42.856Z,16.46
2023-09-14T01:58:10.911Z,16.45
2023-09-14T02:00:38.400Z,16.45
2023-09-14T02:03:06.369Z,16.43
2023-09-14T02:05:33.562Z,16.44
2023-09-14T02:08:01.087Z,16.46
2023-09-14T02:10:28.150Z,16.47
2023-09-14T02:12:55.416Z,16.47
2023-09-14T02:15:23.211Z,16.45
2023-09-14T02:17:51.377Z,16.43
2023-09-14T02:20:21.381Z,16.42
2023-09-14T02:22:48.855Z,16.42
2023-09-14T02:25:16.030Z,16.40
2023-09-14T02:27:43.054Z,16.40
2023-09-14T02:30:11.001Z,16.39
2023-09-14T02:32:38.035Z,16.40
2023-09-14T02:35:05.973Z,16.43
2023-09-14T02:37:33.436Z,16.37
2023-09-14T02:40:00.540Z,16.35
2023-09-14T02:42:27.641Z,16.37
2023-09-14T02:44:54.739Z,16.34
2023-09-14T02:47:21.820Z,16.34
2023-09-14T02:49:48.889Z,16.33
2023-09-14T02:52:15.988Z,16.32
2023-09-14T02:54:43.007Z,16.34
2023-09-14T02:57:10.087Z,16.36
2023-09-14T02:59:37.164Z,16.35
2023-09-14T03:02:05.085Z,16.34
2023-09-14T03:04:32.475Z,16.33
2023-09-14T03:06:59.733Z,16.31
2023-09-14T03:09:29.304Z,16.32
2023-09-14T03:11:56.879Z,16.31
2023-09-14T03:14:23.963Z,16.32
2023-09-14T03:16:51.797Z,16.32
2023-09-14T03:19:19.276Z,16.33
2023-09-14T03:21:46.377Z,16.32
2023-09-14T03:24:14.204Z,16.35
2023-09-14T03:26:41.854Z,16.35
2023-09-14T03:29:09.161Z,16.28
2023-09-14T03:31:37.820Z,16.29
2023-09-14T03:34:08.802Z,16.31
2023-09-14T03:36:37.845Z,16.26
2023-09-14T03:39:07.067Z,16.27
2023-09-14T03:41:34.191Z,16.24
2023-09-14T03:44:02.156Z,16.25
2023-09-14T03:46:30.044Z,16.25
2023-09-14T03:48:57.268Z,16.26
2023-09-14T03:51:24.302Z,16.27
2023-09-14T03:53:52.552Z,16.33
2023-09-14T03:56:20.020Z,16.33
2023-09-14T03:58:47.330Z,16.30
2023-09-14T04:01:14.995Z,16.31
2023-09-14T04:03:42.396Z,16.29
2023-09-14T04:06:09.592Z,16.29
2023-09-14T04:08:36.755Z,16.30
2023-09-14T04:11:04.332Z,16.29
2023-09-14T04:13:34.061Z,16.30
2023-09-14T04:16:05.802Z,16.30
2023-09-14T04:18:38.755Z,16.29
2023-09-14T04:21:08.114Z,16.30
2023-09-14T04:23:35.282Z,16.30
2023-09-14T04:26:03.161Z,16.30
2023-09-14T04:28:30.603Z,16.29
2023-09-14T04:31:02.900Z,16.29
2023-09-14T04:33:32.644Z,16.23
2023-09-14T04:36:04.514Z,16.21
2023-09-14T04:38:34.516Z,16.19
2023-09-14T04:41:08.131Z,16.16
2023-09-14T04:43:36.511Z,16.12
2023-09-14T04:46:06.704Z,16.08
2023-09-14T04:48:34.653Z,16.03
2023-09-14T04:51:02.064Z,16.07
2023-09-14T04:53:29.396Z,16.07
2023-09-14T04:55:56.635Z,15.99
2023-09-14T04:58:26.424Z,15.98
2023-09-14T05:00:54.816Z,15.98
2023-09-14T05:03:22.388Z,16.02
2023-09-14T05:05:55.595Z,16.08
2023-09-14T05:08:23.895Z,16.17
2023-09-14T05:10:51.770Z,16.17
2023-09-14T05:13:22.175Z,16.13
2023-09-14T05:15:49.539Z,16.15
2023-09-14T05:18:16.682Z,16.14
2023-09-14T05:20:49.346Z,16.16
2023-09-14T05:23:17.341Z,16.19
2023-09-14T05:25:46.912Z,16.21
2023-09-14T05:28:16.428Z,16.24
2023-09-14T05:30:44.822Z,16.30
2023-09-14T05:33:12.202Z,16.30
2023-09-14T05:35:39.857Z,16.42
2023-09-14T05:38:06.876Z,16.42
2023-09-14T05:40:34.519Z,16.36
2023-09-14T05:43:01.982Z,16.36
2023-09-14T05:45:29.305Z,16.39
2023-09-14T05:47:57.308Z,16.37
2023-09-14T05:50:25.049Z,16.38
2023-09-14T05:52:52.070Z,16.34
2023-09-14T05:55:19.980Z,16.33
2023-09-14T05:57:47.304Z,16.33
2023-09-14T06:00:14.896Z,16.36
2023-09-14T06:02:43.646Z,16.37
2023-09-14T06:05:23.733Z,16.39
2023-09-14T06:07:54.309Z,16.38
2023-09-14T06:10:22.209Z,16.42
2023-09-14T06:12:51.900Z,16.43
2023-09-14T06:15:19.203Z,16.43
2023-09-14T06:17:48.841Z,16.45
2023-09-14T06:20:16.874Z,16.49
2023-09-14T06:22:44.821Z,16.47
2023-09-14T06:25:12.072Z,16.48
2023-09-14T06:27:40.627Z,16.48
2023-09-14T06:30:09.626Z,16.52
2023-09-14T06:32:37.937Z,16.59
2023-09-14T06:35:06.222Z,16.65
2023-09-14T06:37:33.246Z,16.72
2023-09-14T06:40:00.484Z,16.84
2023-09-14T06:42:27.544Z,16.84
2023-09-14T06:44:54.564Z,16.86
2023-09-14T06:47:21.613Z,16.93
2023-09-14T06:49:48.613Z,17.01
2023-09-14T06:52:15.701Z,17.05
2023-09-14T06:54:45.772Z,17.07
2023-09-14T06:57:12.895Z,17.14
2023-09-14T06:59:39.932Z,17.21
2023-09-14T07:02:07.625Z,17.21
2023-09-14T07:04:36.053Z,17.14
2023-09-14T07:07:03.305Z,17.11
2023-09-14T07:09:30.536Z,17.23
2023-09-14T07:11:57.605Z,17.23
2023-09-14T07:14:24.649Z,17.27
2023-09-14T07:16:52.102Z,17.38
2023-09-14T07:19:19.458Z,17.38
2023-09-14T07:21:46.539Z,17.34
2023-09-14T07:24:14.679Z,17.31
2023-09-14T07:26:41.864Z,17.39
2023-09-14T07:29:09.131Z,17.42
2023-09-14T07:31:36.666Z,17.43
2023-09-14T07:34:03.988Z,17.46
2023-09-14T07:36:31.073Z,17.46
2023-09-14T07:38:58.192Z,17.61
2023-09-14T07:41:27.079Z,17.61
2023-09-14T07:43:54.105Z,17.62
2023-09-14T07:46:21.252Z,17.72
2023-09-14T07:48:48.418Z,17.83
2023-09-14T07:51:15.444Z,17.95
2023-09-14T07:53:42.619Z,18.24
2023-09-14T07:56:09.707Z,18.36
2023-09-14T07:58:36.729Z,18.39
2023-09-14T08:01:03.914Z,18.50
2023-09-14T08:03:31.861Z,18.50
2023-09-14T08:05:59.145Z,18.47
2023-09-14T08:08:26.163Z,18.40
2023-09-14T08:10:55.419Z,18.41
2023-09-14T08:13:23.696Z,18.34
2023-09-14T08:15:50.794Z,18.30
2023-09-14T08:18:19.783Z,18.27
2023-09-14T08:20:48.271Z,18.25
2023-09-14T08:23:19.358Z,18.29
2023-09-14T08:25:47.784Z,18.36
2023-09-14T08:28:17.962Z,18.53
2023-09-14T08:30:47.073Z,18.58
2023-09-14T08:33:16.333Z,18.68
2023-09-14T08:35:48.981Z,18.85
2023-09-14T08:38:17.109Z,19.02
2023-09-14T08:40:48.005Z,19.19
2023-09-14T08:43:15.592Z,19.55
2023-09-14T08:45:43.626Z,19.82
2023-09-14T08:48:15.099Z,20.07
2023-09-14T08:50:45.796Z,20.17
2023-09-14T08:53:15.935Z,20.17
2023-09-14T08:55:45.295Z,20.15
2023-09-14T08:58:14.562Z,20.23
2023-09-14T09:00:43.151Z,20.29
2023-09-14T09:03:10.204Z,20.17
2023-09-14T09:05:37.786Z,20.11
2023-09-14T09:08:06.358Z,20.19
2023-09-14T09:10:33.517Z,20.24
2023-09-14T09:13:04.129Z,20.54
2023-09-14T09:15:38.340Z,20.54
2023-09-14T09:18:13.774Z,20.63
2023-09-14T09:20:45.932Z,20.63
2023-09-14T09:23:17.554Z,20.48
2023-09-14T09:25:53.083Z,20.51
2023-09-14T09:28:29.173Z,20.52
2023-09-14T09:30:56.379Z,20.67
2023-09-14T09:33:39.425Z,21.33
2023-09-14T09:36:18.466Z,21.64
2023-09-14T09:38:49.580Z,21.85
2023-09-14T09:41:17.682Z,21.86
2023-09-14T09:43:46.525Z,21.86
2023-09-14T09:46:19.027Z,21.58
2023-09-14T09:48:46.637Z,21.58
2023-09-14T09:51:14.364Z,21.24
2023-09-14T09:54:08.894Z,20.54
2023-09-14T09:56:40.121Z,20.54
2023-09-14T09:59:09.979Z,20.34
2023-09-14T10:01:39.622Z,20.47
2023-09-14T10:04:11.580Z,20.61
2023-09-14T10:06:39.973Z,20.67
2023-09-14T10:09:13.312Z,20.85
2023-09-14T10:11:42.565Z,21.05
2023-09-14T10:14:15.012Z,21.60
2023-09-14T10:16:45.765Z,22.21
2023-09-14T10:19:14.081Z,22.78
2023-09-14T10:21:46.221Z,22.78
2023-09-14T10:24:15.070Z,23.06
2023-09-14T10:26:44.987Z,23.62
2023-09-14T10:29:12.308Z,23.52
2023-09-14T10:31:47.707Z,23.52
2023-09-14T10:34:18.299Z,22.74
2023-09-14T10:36:48.582Z,22.67
2023-09-14T10:39:23.898Z,22.61
2023-09-14T10:41:51.022Z,22.58
2023-09-14T10:44:18.695Z,22.58
2023-09-14T10:46:53.768Z,22.43
2023-09-14T10:49:30.967Z,22.27
2023-09-14T10:51:58.478Z,22.61
2023-09-14T10:54:32.929Z,22.61
2023-09-14T10:57:15.687Z,22.88
2023-09-14T10:59:59.526Z,22.83
2023-09-14T11:02:49.386Z,22.53
2023-09-14T11:05:25.714Z,21.90
2023-09-14T11:10:31.525Z,21.64
2023-09-14T11:13:23.383Z,21.64
2023-09-14T11:16:22.429Z,21.91
2023-09-14T11:18:51.474Z,22.20
2023-09-14T11:21:34.204Z,22.20
2023-09-14T11:24:05.181Z,22.14
2023-09-14T11:26:41.787Z,22.04
2023-09-14T11:29:12.532Z,22.09
2023-09-14T11:31:59.625Z,22.18
2023-09-14T11:34:34.217Z,22.36
2023-09-14T11:37:08.873Z,22.44
2023-09-14T11:39:44.070Z,22.44
2023-09-14T11:42:16.054Z,22.25
2023-09-14T11:44:51.680Z,21.98
2023-09-14T11:47:27.363Z,21.98
2023-09-14T11:50:01.427Z,21.92
2023-09-14T11:52:33.034Z,21.92
2023-09-14T11:55:00.117Z,21.86
2023-09-14T11:57:30.290Z,21.85
2023-09-14T11:59:57.431Z,21.94
2023-09-14T12:02:24.936Z,21.94
2023-09-14T12:04:54.953Z,21.90
2023-09-14T12:07:25.030Z,22.14
2023-09-14T12:09:52.260Z,22.29
2023-09-14T12:12:31.416Z,22.47
2023-09-14T12:15:03.435Z,22.66
2023-09-14T12:17:31.902Z,22.81
2023-09-14T12:20:01.867Z,22.89
2023-09-14T12:22:33.478Z,22.97
2023-09-14T12:25:05.510Z,22.97
2023-09-14T12:27:35.731Z,22.89
2023-09-14T12:30:07.640Z,22.93
2023-09-14T12:32:36.748Z,23.04
2023-09-14T12:35:05.869Z,23.09
2023-09-14T12:37:35.496Z,23.18
2023-09-14T12:40:12.395Z,23.35
2023-09-14T12:42:44.183Z,23.61
2023-09-14T12:45:16.887Z,23.79
2023-09-14T12:47:47.515Z,23.86
2023-09-14T12:50:18.364Z,23.86
2023-09-14T12:52:47.962Z,23.30
2023-09-14T12:55:18.408Z,23.15
2023-09-14T12:57:51.434Z,23.26
2023-09-14T13:00:26.323Z,23.04
2023-09-14T13:02:55.579Z,23.18
2023-09-14T13:05:26.172Z,23.50
2023-09-14T13:07:56.885Z,23.72
2023-09-14T13:10:30.342Z,23.72
2023-09-14T13:13:11.648Z,23.86
2023-09-14T13:15:48.395Z,23.90
2023-09-14T13:18:19.031Z,23.90
2023-09-14T13:20:53.138Z,23.60
2023-09-14T13:23:21.837Z,23.78
2023-09-14T13:25:48.975Z,23.91
2023-09-14T13:28:16.691Z,23.96
2023-09-14T13:30:43.889Z,24.09
2023-09-14T13:33:11.194Z,24.05
2023-09-14T13:35:39.966Z,24.11
2023-09-14T13:38:07.049Z,24.04
2023-09-14T13:40:34.129Z,24.04
2023-09-14T13:43:09.013Z,24.17
2023-09-14T13:45:36.942Z,23.95
2023-09-14T13:48:04.957Z,23.95
2023-09-14T13:50:32.371Z,23.59
2023-09-14T13:52:59.773Z,23.33
2023-09-14T13:55:27.027Z,23.44
2023-09-14T13:57:54.122Z,23.44
2023-09-14T14:00:21.369Z,23.41
2023-09-14T14:02:52.138Z,23.47
2023-09-14T14:05:20.073Z,23.47
2023-09-14T14:07:47.429Z,23.54
2023-09-14T14:10:15.096Z,23.88
2023-09-14T14:12:42.225Z,23.88
2023-09-14T14:15:12.844Z,24.02
2023-09-14T14:17:40.939Z,23.80
2023-09-14T14:20:10.557Z,23.29
2023-09-14T14:22:38.842Z,22.78
2023-09-14T14:25:06.848Z,22.49
2023-09-14T14:27:36.879Z,22.37
2023-09-14T14:30:04.509Z,22.34
2023-09-14T14:32:31.787Z,22.31
2023-09-14T14:34:59.182Z,22.23
2023-09-14T14:37:26.393Z,22.38
2023-09-14T14:39:53.585Z,22.31
2023-09-14T14:42:22.622Z,22.50
2023-09-14T14:44:50.448Z,22.49
2023-09-14T14:47:18.768Z,22.42
2023-09-14T14:49:46.181Z,22.50
2023-09-14T14:52:14.034Z,22.48
2023-09-14T14:54:41.155Z,22.51
2023-09-14T14:57:08.333Z,22.51
2023-09-14T14:59:36.913Z,22.43
2023-09-14T15:02:04.288Z,22.46
2023-09-14T15:04:32.083Z,22.44
2023-09-14T15:06:59.878Z,22.44
2023-09-14T15:09:27.123Z,22.47
2023-09-14T15:11:56.241Z,22.41
2023-09-14T15:14:23.335Z,22.41
2023-09-14T15:16:50.608Z,22.38
2023-09-14T15:19:19.565Z,22.38
2023-09-14T15:21:48.571Z,22.28
2023-09-14T15:24:15.729Z,22.12
2023-09-14T15:26:42.840Z,22.08
2023-09-14T15:29:09.870Z,22.06
2023-09-14T15:31:37.398Z,22.07
2023-09-14T15:34:05.537Z,22.00
2023-09-14T15:36:33.616Z,21.97
2023-09-14T15:39:00.656Z,21.87
2023-09-14T15:41:27.701Z,21.82
2023-09-14T15:43:56.814Z,21.80
2023-09-14T15:46:27.941Z,21.80
2023-09-14T15:48:55.623Z,21.74
2023-09-14T15:51:24.974Z,21.67
2023-09-14T15:53:52.126Z,21.63
2023-09-14T15:56:19.546Z,21.58
2023-09-14T15:58:53.076Z,21.51
2023-09-14T16:01:23.930Z,21.43
2023-09-14T16:03:52.225Z,21.45
2023-09-14T16:06:20.490Z,21.41
2023-09-14T16:08:57.478Z,21.33
2023-09-14T16:11:25.104Z,21.26
2023-09-14T16:13:56.076Z,21.17
2023-09-14T16:16:25.771Z,21.14
2023-09-14T16:19:00.032Z,21.09
2023-09-14T16:21:42.777Z,21.06
2023-09-14T16:24:13.735Z,21.02
2023-09-14T16:26:42.851Z,20.98
2023-09-14T16:29:09.962Z,20.94
2023-09-14T16:31:37.163Z,20.90
2023-09-14T16:34:08.192Z,20.89
2023-09-14T16:36:36.120Z,20.89
2023-09-14T16:39:09.130Z,20.81
2023-09-14T16:41:40.268Z,20.74
2023-09-14T16:44:10.991Z,20.68
2023-09-14T16:46:43.003Z,20.66
2023-09-14T16:49:30.040Z,20.61
2023-09-14T16:51:59.577Z,20.54
2023-09-14T16:54:34.366Z,20.46
2023-09-14T16:57:05.000Z,20.40
2023-09-14T16:59:32.160Z,20.36
2023-09-14T17:02:02.079Z,20.27
2023-09-14T17:04:31.219Z,20.27
2023-09-14T17:07:03.218Z,20.13
2023-09-14T17:09:40.072Z,20.07
2023-09-14T17:12:07.808Z,20.06
2023-09-14T17:14:36.698Z,20.04
2023-09-14T17:17:04.921Z,19.99
2023-09-14T17:19:35.197Z,19.97
2023-09-14T17:22:06.466Z,19.88
2023-09-14T17:24:48.847Z,19.81
2023-09-14T17:27:16.546Z,19.75
2023-09-14T17:29:43.741Z,19.74
2023-09-14T17:32:12.050Z,19.71
2023-09-14T17:34:39.069Z,19.67
2023-09-14T17:37:06.652Z,19.66
2023-09-14T17:39:36.352Z,19.63
2023-09-14T17:42:04.856Z,19.58
2023-09-14T17:44:32.114Z,19.58
2023-09-14T17:46:59.453Z,19.49
2023-09-14T17:49:27.856Z,19.45
2023-09-14T17:51:55.660Z,19.43
2023-09-14T17:54:22.907Z,19.43
2023-09-14T17:56:50.961Z,19.33
2023-09-14T17:59:18.101Z,19.31
2023-09-14T18:01:46.283Z,19.29
2023-09-14T18:04:13.633Z,19.29
2023-09-14T18:06:41.581Z,19.23
2023-09-14T18:09:08.879Z,19.20
2023-09-14T18:11:35.912Z,19.17
2023-09-14T18:14:02.922Z,19.11
2023-09-14T18:16:32.199Z,19.12
2023-09-14T18:19:01.096Z,19.09
2023-09-14T18:21:28.181Z,19.10
2023-09-14T18:23:55.246Z,19.10
2023-09-14T18:26:24.617Z,19.06
2023-09-14T18:28:51.861Z,19.09
2023-09-14T18:31:18.940Z,19.09
2023-09-14T18:33:46.045Z,19.03
2023-09-14T18:36:14.678Z,18.99
2023-09-14T18:38:41.742Z,18.98
2023-09-14T18:41:09.355Z,18.95
2023-09-14T18:43:37.384Z,18.93
2023-09-14T18:46:05.238Z,18.94
2023-09-14T18:48:32.387Z,18.89
2023-09-14T18:51:04.459Z,18.85
2023-09-14T18:53:32.694Z,18.84
2023-09-14T18:56:00.750Z,18.89
2023-09-14T18:59:21.436Z,18.89
2023-09-14T19:01:15.016Z,18.81
2023-09-14T19:03:43.114Z,18.78
2023-09-14T19:06:10.280Z,18.74
2023-09-14T19:08:38.975Z,18.66
2023-09-14T19:11:07.301Z,18.63
2023-09-14T19:13:35.383Z,18.62
2023-09-14T19:16:03.302Z,18.60
2023-09-14T19:18:30.411Z,18.54
2023-09-14T19:20:57.418Z,18.47
2023-09-14T19:23:24.525Z,18.45
2023-09-14T19:25:55.788Z,18.39
2023-09-14T19:28:25.367Z,18.39
2023-09-14T19:30:52.639Z,18.36
2023-09-14T19:33:21.152Z,18.32
2023-09-14T19:35:55.096Z,18.26
2023-09-14T19:38:23.199Z,18.20
2023-09-14T19:40:52.054Z,18.13
2023-09-14T19:43:19.208Z,18.10
2023-09-14T19:45:46.388Z,18.05
2023-09-14T19:48:13.542Z,18.01
2023-09-14T19:50:40.678Z,18.00
2023-09-14T19:53:07.720Z,17.94
2023-09-14T19:55:34.799Z,17.92
2023-09-14T19:58:01.973Z,17.92
2023-09-14T20:00:29.083Z,17.94
2023-09-14T20:02:56.406Z,17.89
2023-09-14T20:05:25.943Z,17.84
2023-09-14T20:07:53.258Z,17.84
2023-09-14T20:10:21.650Z,17.76
2023-09-14T20:12:49.605Z,17.67
2023-09-14T20:15:18.389Z,17.66
2023-09-14T20:17:48.198Z,17.62
2023-09-14T20:20:16.585Z,17.60
2023-09-14T20:22:43.583Z,17.49
2023-09-14T20:25:10.847Z,17.41
2023-09-14T20:27:38.118Z,17.34
2023-09-14T20:30:09.923Z,17.33
2023-09-14T20:32:37.770Z,17.34
2023-09-14T20:35:06.326Z,17.27
2023-09-14T20:37:41.558Z,17.21
2023-09-14T20:40:11.840Z,17.14
2023-09-14T20:42:40.092Z,17.10
2023-09-14T20:45:13.477Z,17.02
2023-09-14T20:47:44.378Z,16.95
2023-09-14T20:50:15.303Z,16.84
2023-09-14T20:52:47.443Z,16.79
2023-09-14T20:55:15.363Z,16.68
2023-09-14T20:57:43.119Z,16.64
2023-09-14T21:00:13.187Z,16.65
2023-09-14T21:02:40.422Z,16.61
2023-09-14T21:05:09.770Z,16.61
2023-09-14T21:07:41.831Z,16.55
2023-09-14T21:10:11.130Z,16.49
2023-09-14T21:12:39.383Z,16.46
2023-09-14T21:15:07.080Z,16.43
2023-09-14T21:17:37.063Z,16.40
2023-09-14T21:20:04.509Z,16.33
2023-09-14T21:22:31.697Z,16.30
2023-09-14T21:25:00.576Z,16.30
2023-09-14T21:27:27.829Z,16.18
2023-09-14T21:29:54.909Z,16.13
2023-09-14T21:32:21.965Z,16.09
2023-09-14T21:34:49.047Z,16.04
2023-09-14T21:37:18.679Z,16.03
2023-09-14T21:39:45.792Z,15.99
2023-09-14T21:42:14.540Z,15.95
2023-09-14T21:44:41.575Z,15.90
2023-09-14T21:47:08.597Z,15.89
2023-09-14T21:49:42.030Z,15.91
2023-09-14T21:52:11.847Z,15.87
2023-09-14T21:54:40.837Z,15.81
2023-09-14T21:57:09.712Z,15.77
2023-09-14T21:59:43.794Z,15.76
2023-09-14T22:02:11.263Z,15.72
2023-09-14T22:04:38.493Z,15.71
2023-09-14T22:07:05.562Z,15.68
2023-09-14T22:09:35.433Z,15.64
2023-09-14T22:12:04.697Z,15.60
2023-09-14T22:14:31.751Z,15.64
2023-09-14T22:16:58.854Z,15.63
2023-09-14T22:19:30.569Z,15.61
2023-09-14T22:21:58.780Z,15.59
2023-09-14T22:24:26.488Z,15.56
2023-09-14T22:26:53.898Z,15.58
2023-09-14T22:29:21.127Z,15.55
2023-09-14T22:31:48.463Z,15.58
2023-09-14T22:34:16.155Z,15.62
2023-09-14T22:36:43.762Z,15.55
2023-09-14T22:39:11.700Z,15.55
2023-09-14T22:41:40.458Z,15.58
2023-09-14T22:44:08.164Z,15.58
2023-09-14T22:46:35.715Z,15.53
2023-09-14T22:49:02.911Z,15.51
2023-09-14T22:51:30.178Z,15.45
2023-09-14T22:53:59.502Z,15.39
2023-09-14T22:56:29.424Z,15.31
2023-09-14T22:58:56.632Z,15.29
2023-09-14T23:01:27.828Z,15.30
2023-09-14T23:03:57.353Z,15.30
2023-09-14T23:06:25.007Z,15.20
2023-09-14T23:08:52.161Z,15.25
2023-09-14T23:11:25.312Z,15.23
2023-09-14T23:13:52.576Z,15.22
2023-09-14T23:16:26.319Z,15.21
2023-09-14T23:18:54.969Z,15.16
2023-09-14T23:21:22.185Z,15.12
2023-09-14T23:23:50.364Z,15.07
2023-09-14T23:26:17.381Z,15.07
2023-09-14T23:28:44.392Z,15.03
2023-09-14T23:31:11.446Z,15.01
2023-09-14T23:33:38.536Z,15.01
2023-09-14T23:36:14.469Z,14.95
2023-09-14T23:38:42.380Z,14.95
2023-09-14T23:41:14.236Z,14.94
2023-09-14T23:43:44.608Z,14.90
2023-09-14T23:46:15.571Z,14.89
2023-09-14T23:48:42.675Z,14.87
2023-09-14T23:51:09.818Z,14.85
2023-09-14T23:53:37.202Z,14.89
2023-09-14T23:56:06.730Z,14.89
2023-09-14T23:58:33.799Z,14.83
